sensor_id;sensor_type;location;lat;lon;timestamp;pressure;altitude;pressure_sealevel;temperature;humidity
23261;BME280;11799;47.740;-3.390;2023-01-19T00:01:08;101055.56;;;2.53;91.67
23261;BME280;11799;47.740;-3.390;2023-01-19T00:03:34;101058.13;;;2.55;91.86
23261;BME280;11799;47.740;-3.390;2023-01-19T00:06:07;101050.47;;;2.50;91.92
23261;BME280;11799;47.740;-3.390;2023-01-19T00:08:33;101039.25;;;2.48;91.37
23261;BME280;11799;47.740;-3.390;2023-01-19T00:11:00;101037.56;;;2.47;91.66
23261;BME280;11799;47.740;-3.390;2023-01-19T00:13:26;101042.91;;;2.44;91.77
23261;BME280;11799;47.740;-3.390;2023-01-19T00:15:52;101039.56;;;2.41;91.03
23261;BME280;11799;47.740;-3.390;2023-01-19T00:18:17;101044.53;;;2.47;91.89
23261;BME280;11799;47.740;-3.390;2023-01-19T00:20:46;101043.03;;;2.41;91.25
23261;BME280;11799;47.740;-3.390;2023-01-19T00:23:13;101041.28;;;2.42;91.80
23261;BME280;11799;47.740;-3.390;2023-01-19T00:25:39;101047.50;;;2.38;91.23
23261;BME280;11799;47.740;-3.390;2023-01-19T00:28:07;101049.09;;;2.42;91.41
23261;BME280;11799;47.740;-3.390;2023-01-19T00:30:33;101049.22;;;2.39;91.66
23261;BME280;11799;47.740;-3.390;2023-01-19T00:32:58;101047.44;;;2.39;91.63
23261;BME280;11799;47.740;-3.390;2023-01-19T00:35:24;101049.22;;;2.39;91.60
23261;BME280;11799;47.740;-3.390;2023-01-19T00:37:50;101048.25;;;2.41;91.19
23261;BME280;11799;47.740;-3.390;2023-01-19T00:40:16;101036.19;;;2.39;90.74
23261;BME280;11799;47.740;-3.390;2023-01-19T00:42:42;101033.38;;;2.43;90.66
23261;BME280;11799;47.740;-3.390;2023-01-19T00:45:17;101040.28;;;2.44;90.82
23261;BME280;11799;47.740;-3.390;2023-01-19T00:47:44;101042.91;;;2.44;90.79
23261;BME280;11799;47.740;-3.390;2023-01-19T00:50:11;101044.66;;;2.44;90.93
23261;BME280;11799;47.740;-3.390;2023-01-19T00:52:40;101045.38;;;2.47;91.00
23261;BME280;11799;47.740;-3.390;2023-01-19T00:55:07;101035.03;;;2.46;90.51
23261;BME280;11799;47.740;-3.390;2023-01-19T00:57:34;101041.16;;;2.45;91.21
23261;BME280;11799;47.740;-3.390;2023-01-19T00:59:59;101041.94;;;2.47;91.46
23261;BME280;11799;47.740;-3.390;2023-01-19T01:02:26;101035.16;;;2.43;90.98
23261;BME280;11799;47.740;-3.390;2023-01-19T01:04:51;101039.56;;;2.41;91.24
23261;BME280;11799;47.740;-3.390;2023-01-19T01:07:20;101030.06;;;2.40;91.01
23261;BME280;11799;47.740;-3.390;2023-01-19T01:09:46;101040.53;;;2.38;91.55
23261;BME280;11799;47.740;-3.390;2023-01-19T01:12:12;101046.94;;;2.31;91.08
23261;BME280;11799;47.740;-3.390;2023-01-19T01:14:37;101040.03;;;2.30;91.05
23261;BME280;11799;47.740;-3.390;2023-01-19T01:17:03;101041.84;;;2.28;91.28
23261;BME280;11799;47.740;-3.390;2023-01-19T01:19:29;101041.97;;;2.25;91.59
23261;BME280;11799;47.740;-3.390;2023-01-19T01:21:54;101048.16;;;2.22;91.50
23261;BME280;11799;47.740;-3.390;2023-01-19T01:24:20;101038.53;;;2.24;91.87
23261;BME280;11799;47.740;-3.390;2023-01-19T01:26:46;101045.44;;;2.25;91.68
23261;BME280;11799;47.740;-3.390;2023-01-19T01:29:11;101045.53;;;2.22;91.98
23261;BME280;11799;47.740;-3.390;2023-01-19T01:31:37;101039.38;;;2.25;92.22
23261;BME280;11799;47.740;-3.390;2023-01-19T01:34:03;101038.63;;;2.21;92.24
23261;BME280;11799;47.740;-3.390;2023-01-19T01:36:28;101041.19;;;2.23;92.37
23261;BME280;11799;47.740;-3.390;2023-01-19T01:38:57;101044.94;;;2.16;92.79
23261;BME280;11799;47.740;-3.390;2023-01-19T01:41:22;101045.84;;;2.15;92.43
23261;BME280;11799;47.740;-3.390;2023-01-19T01:43:51;101044.81;;;2.19;91.76
23261;BME280;11799;47.740;-3.390;2023-01-19T01:46:19;101042.09;;;2.22;92.46
23261;BME280;11799;47.740;-3.390;2023-01-19T01:49:11;101036.03;;;2.21;92.76
23261;BME280;11799;47.740;-3.390;2023-01-19T01:51:45;101045.53;;;2.22;93.56
23261;BME280;11799;47.740;-3.390;2023-01-19T01:54:22;101039.59;;;2.19;94.21
23261;BME280;11799;47.740;-3.390;2023-01-19T01:56:51;101038.75;;;2.18;93.64
23261;BME280;11799;47.740;-3.390;2023-01-19T01:59:26;101035.13;;;2.22;94.19
23261;BME280;11799;47.740;-3.390;2023-01-19T02:02:06;101030.63;;;2.26;94.76
23261;BME280;11799;47.740;-3.390;2023-01-19T02:04:56;101033.53;;;2.18;94.72
23261;BME280;11799;47.740;-3.390;2023-01-19T02:07:32;101032.03;;;2.13;94.88
23261;BME280;11799;47.740;-3.390;2023-01-19T02:10:19;101034.75;;;2.10;95.28
23261;BME280;11799;47.740;-3.390;2023-01-19T02:13:03;101037.31;;;2.11;95.47
23261;BME280;11799;47.740;-3.390;2023-01-19T02:15:42;101025.19;;;2.10;95.72
23261;BME280;11799;47.740;-3.390;2023-01-19T02:18:08;101034.88;;;2.07;95.63
23261;BME280;11799;47.740;-3.390;2023-01-19T02:20:35;101028.09;;;2.03;95.84
23261;BME280;11799;47.740;-3.390;2023-01-19T02:23:10;101034.31;;;1.98;96.02
23261;BME280;11799;47.740;-3.390;2023-01-19T02:25:40;101034.25;;;2.00;95.96
23261;BME280;11799;47.740;-3.390;2023-01-19T02:28:06;101033.25;;;2.04;96.28
23261;BME280;11799;47.740;-3.390;2023-01-19T02:30:32;101032.50;;;2.01;95.55
23261;BME280;11799;47.740;-3.390;2023-01-19T02:32:59;101042.03;;;2.02;95.85
23261;BME280;11799;47.740;-3.390;2023-01-19T02:35:25;101037.53;;;2.05;96.40
23261;BME280;11799;47.740;-3.390;2023-01-19T02:37:51;101029.06;;;2.00;96.33
23261;BME280;11799;47.740;-3.390;2023-01-19T02:40:19;101027.25;;;2.02;96.82
23261;BME280;11799;47.740;-3.390;2023-01-19T02:42:49;101032.44;;;2.02;96.23
23261;BME280;11799;47.740;-3.390;2023-01-19T02:45:20;101026.81;;;1.91;96.49
23261;BME280;11799;47.740;-3.390;2023-01-19T02:47:49;101027.72;;;1.90;96.47
23261;BME280;11799;47.740;-3.390;2023-01-19T02:55:41;101024.19;;;1.91;96.60
23261;BME280;11799;47.740;-3.390;2023-01-19T02:58:41;101023.28;;;1.92;96.42
23261;BME280;11799;47.740;-3.390;2023-01-19T03:03:55;101022.56;;;1.88;96.67
23261;BME280;11799;47.740;-3.390;2023-01-19T03:06:43;101019.09;;;1.88;96.09
23261;BME280;11799;47.740;-3.390;2023-01-19T03:11:59;101005.13;;;1.90;96.87
23261;BME280;11799;47.740;-3.390;2023-01-19T03:14:27;101003.59;;;1.85;96.85
23261;BME280;11799;47.740;-3.390;2023-01-19T03:16:58;101005.97;;;1.91;96.28
23261;BME280;11799;47.740;-3.390;2023-01-19T03:19:36;100996.34;;;1.93;96.44
23261;BME280;11799;47.740;-3.390;2023-01-19T03:22:10;100997.00;;;1.98;96.90
23261;BME280;11799;47.740;-3.390;2023-01-19T03:24:41;100992.59;;;2.00;96.76
23261;BME280;11799;47.740;-3.390;2023-01-19T03:27:11;100994.22;;;2.03;96.79
23261;BME280;11799;47.740;-3.390;2023-01-19T03:29:41;100987.19;;;2.05;97.38
23261;BME280;11799;47.740;-3.390;2023-01-19T03:32:13;100987.13;;;2.06;97.16
23261;BME280;11799;47.740;-3.390;2023-01-19T03:34:41;100981.94;;;2.06;97.40
23261;BME280;11799;47.740;-3.390;2023-01-19T03:37:10;100981.13;;;2.04;97.04
23261;BME280;11799;47.740;-3.390;2023-01-19T03:39:36;100988.03;;;2.05;97.16
23261;BME280;11799;47.740;-3.390;2023-01-19T03:42:05;100983.75;;;2.04;97.72
23261;BME280;11799;47.740;-3.390;2023-01-19T03:44:32;100979.19;;;2.09;97.35
23261;BME280;11799;47.740;-3.390;2023-01-19T03:46:59;100977.56;;;2.07;97.67
23261;BME280;11799;47.740;-3.390;2023-01-19T03:49:25;100970.72;;;2.04;97.30
23261;BME280;11799;47.740;-3.390;2023-01-19T03:51:54;100974.06;;;2.08;97.33
23261;BME280;11799;47.740;-3.390;2023-01-19T03:54:21;100970.47;;;2.10;97.60
23261;BME280;11799;47.740;-3.390;2023-01-19T03:56:47;100967.88;;;2.10;97.26
23261;BME280;11799;47.740;-3.390;2023-01-19T03:59:12;100966.97;;;2.11;97.37
23261;BME280;11799;47.740;-3.390;2023-01-19T04:01:42;100964.28;;;2.13;97.79
23261;BME280;11799;47.740;-3.390;2023-01-19T04:04:07;100957.25;;;2.15;97.32
23261;BME280;11799;47.740;-3.390;2023-01-19T04:06:33;100963.31;;;2.15;97.00
23261;BME280;11799;47.740;-3.390;2023-01-19T04:08:58;100962.41;;;2.16;97.55
23261;BME280;11799;47.740;-3.390;2023-01-19T04:11:24;100950.41;;;2.12;97.30
23261;BME280;11799;47.740;-3.390;2023-01-19T04:13:49;100951.16;;;2.16;97.07
23261;BME280;11799;47.740;-3.390;2023-01-19T04:16:15;100957.06;;;2.19;97.15
23261;BME280;11799;47.740;-3.390;2023-01-19T04:18:44;100959.69;;;2.19;97.23
23261;BME280;11799;47.740;-3.390;2023-01-19T04:21:10;100957.94;;;2.20;97.40
23261;BME280;11799;47.740;-3.390;2023-01-19T04:23:36;100956.28;;;2.17;97.48
23261;BME280;11799;47.740;-3.390;2023-01-19T04:26:06;100958.66;;;2.23;97.14
23261;BME280;11799;47.740;-3.390;2023-01-19T04:28:33;100952.41;;;2.27;97.00
23261;BME280;11799;47.740;-3.390;2023-01-19T04:30:59;100950.69;;;2.26;97.27
23261;BME280;11799;47.740;-3.390;2023-01-19T04:33:26;100949.66;;;2.30;97.79
23261;BME280;11799;47.740;-3.390;2023-01-19T04:35:53;100946.00;;;2.35;97.47
23261;BME280;11799;47.740;-3.390;2023-01-19T04:38:20;100942.47;;;2.36;97.88
23261;BME280;11799;47.740;-3.390;2023-01-19T04:40:47;100946.00;;;2.35;97.92
23261;BME280;11799;47.740;-3.390;2023-01-19T04:43:12;100932.28;;;2.31;97.65
23261;BME280;11799;47.740;-3.390;2023-01-19T04:45:38;100935.50;;;2.36;97.77
23261;BME280;11799;47.740;-3.390;2023-01-19T04:48:04;100924.22;;;2.36;97.37
23261;BME280;11799;47.740;-3.390;2023-01-19T04:50:30;100927.63;;;2.38;97.56
23261;BME280;11799;47.740;-3.390;2023-01-19T04:52:56;100932.72;;;2.41;97.65
23261;BME280;11799;47.740;-3.390;2023-01-19T04:55:21;100932.72;;;2.41;97.59
23261;BME280;11799;47.740;-3.390;2023-01-19T04:57:47;100930.94;;;2.41;97.68
23261;BME280;11799;47.740;-3.390;2023-01-19T05:00:13;100929.13;;;2.43;97.17
23261;BME280;11799;47.740;-3.390;2023-01-19T05:02:39;100922.88;;;2.47;97.02
23261;BME280;11799;47.740;-3.390;2023-01-19T05:05:07;100921.03;;;2.49;97.53
23261;BME280;11799;47.740;-3.390;2023-01-19T05:07:32;100922.53;;;2.55;97.03
23261;BME280;11799;47.740;-3.390;2023-01-19T05:09:59;100916.56;;;2.53;97.28
23261;BME280;11799;47.740;-3.390;2023-01-19T05:12:25;100921.50;;;2.59;97.78
23261;BME280;11799;47.740;-3.390;2023-01-19T05:14:50;100917.34;;;2.55;97.97
23261;BME280;11799;47.740;-3.390;2023-01-19T05:17:16;100911.00;;;2.60;97.85
23261;BME280;11799;47.740;-3.390;2023-01-19T05:19:41;100909.19;;;2.62;97.19
23261;BME280;11799;47.740;-3.390;2023-01-19T05:22:07;100899.59;;;2.63;97.69
23261;BME280;11799;47.740;-3.390;2023-01-19T05:24:33;100892.56;;;2.65;97.55
23261;BME280;11799;47.740;-3.390;2023-01-19T05:26:59;100887.34;;;2.65;98.08
23261;BME280;11799;47.740;-3.390;2023-01-19T05:29:25;100883.75;;;2.68;97.63
23261;BME280;11799;47.740;-3.390;2023-01-19T05:31:51;100875.28;;;2.62;97.91
23261;BME280;11799;47.740;-3.390;2023-01-19T05:34:16;100870.22;;;2.59;97.72
23261;BME280;11799;47.740;-3.390;2023-01-19T05:36:42;100867.53;;;2.61;97.80
23261;BME280;11799;47.740;-3.390;2023-01-19T05:39:08;100864.94;;;2.61;97.58
23261;BME280;11799;47.740;-3.390;2023-01-19T05:41:34;100849.22;;;2.62;97.79
23261;BME280;11799;47.740;-3.390;2023-01-19T05:43:59;100849.22;;;2.62;97.87
23261;BME280;11799;47.740;-3.390;2023-01-19T05:46:25;100850.06;;;2.63;98.16
23261;BME280;11799;47.740;-3.390;2023-01-19T05:48:51;100843.09;;;2.63;98.05
23261;BME280;11799;47.740;-3.390;2023-01-19T05:51:16;100841.31;;;2.64;97.97
23261;BME280;11799;47.740;-3.390;2023-01-19T05:53:42;100843.16;;;2.62;97.68
23261;BME280;11799;47.740;-3.390;2023-01-19T05:56:08;100842.25;;;2.63;97.73
23261;BME280;11799;47.740;-3.390;2023-01-19T05:58:38;100837.94;;;2.62;98.07
23261;BME280;11799;47.740;-3.390;2023-01-19T06:01:05;100826.59;;;2.63;98.25
23261;BME280;11799;47.740;-3.390;2023-01-19T06:03:34;100821.25;;;2.66;98.01
23261;BME280;11799;47.740;-3.390;2023-01-19T06:06:00;100816.16;;;2.63;98.39
23261;BME280;11799;47.740;-3.390;2023-01-19T06:08:26;100819.41;;;2.68;98.09
23261;BME280;11799;47.740;-3.390;2023-01-19T06:10:52;100811.72;;;2.65;98.67
23261;BME280;11799;47.740;-3.390;2023-01-19T06:13:17;100807.22;;;2.69;98.78
23261;BME280;11799;47.740;-3.390;2023-01-19T06:15:43;100812.38;;;2.70;98.95
23261;BME280;11799;47.740;-3.390;2023-01-19T06:18:10;100814.13;;;2.70;98.51
23261;BME280;11799;47.740;-3.390;2023-01-19T06:20:36;100806.25;;;2.71;98.58
23261;BME280;11799;47.740;-3.390;2023-01-19T06:23:02;100809.75;;;2.70;98.63
23261;BME280;11799;47.740;-3.390;2023-01-19T06:25:27;100805.31;;;2.72;98.61
23261;BME280;11799;47.740;-3.390;2023-01-19T06:27:53;100800.88;;;2.74;98.65
23261;BME280;11799;47.740;-3.390;2023-01-19T06:30:19;100796.44;;;2.76;99.16
23261;BME280;11799;47.740;-3.390;2023-01-19T06:32:45;100797.56;;;2.71;99.30
23261;BME280;11799;47.740;-3.390;2023-01-19T06:35:12;100797.50;;;2.72;99.08
23261;BME280;11799;47.740;-3.390;2023-01-19T06:37:38;100797.38;;;2.75;98.79
23261;BME280;11799;47.740;-3.390;2023-01-19T06:40:04;100803.50;;;2.74;98.96
23261;BME280;11799;47.740;-3.390;2023-01-19T06:42:30;100798.97;;;2.78;99.49
23261;BME280;11799;47.740;-3.390;2023-01-19T06:44:55;100798.84;;;2.81;99.00
23261;BME280;11799;47.740;-3.390;2023-01-19T06:47:21;100798.91;;;2.79;99.45
23261;BME280;11799;47.740;-3.390;2023-01-19T06:49:46;100798.97;;;2.78;99.61
23261;BME280;11799;47.740;-3.390;2023-01-19T06:52:13;100793.63;;;2.81;99.13
23261;BME280;11799;47.740;-3.390;2023-01-19T06:54:40;100797.84;;;2.83;99.79
23261;BME280;11799;47.740;-3.390;2023-01-19T06:57:07;100796.88;;;2.86;99.70
23261;BME280;11799;47.740;-3.390;2023-01-19T06:59:33;100796.94;;;2.84;99.72
23261;BME280;11799;47.740;-3.390;2023-01-19T07:01:59;100795.88;;;2.88;99.37
23261;BME280;11799;47.740;-3.390;2023-01-19T07:04:24;100786.38;;;2.87;99.96
23261;BME280;11799;47.740;-3.390;2023-01-19T07:06:51;100799.16;;;2.92;99.55
23261;BME280;11799;47.740;-3.390;2023-01-19T07:09:16;100796.50;;;2.93;100.00
23261;BME280;11799;47.740;-3.390;2023-01-19T07:11:45;100789.13;;;2.84;99.78
23261;BME280;11799;47.740;-3.390;2023-01-19T07:14:11;100794.25;;;2.86;99.98
23261;BME280;11799;47.740;-3.390;2023-01-19T07:16:37;100794.09;;;2.89;100.00
23261;BME280;11799;47.740;-3.390;2023-01-19T07:19:03;100785.97;;;2.95;99.98
23261;BME280;11799;47.740;-3.390;2023-01-19T07:21:28;100788.72;;;2.92;99.83
23261;BME280;11799;47.740;-3.390;2023-01-19T07:23:54;100781.16;;;2.87;99.72
23261;BME280;11799;47.740;-3.390;2023-01-19T07:26:20;100780.31;;;2.87;99.47
23261;BME280;11799;47.740;-3.390;2023-01-19T07:28:47;100775.84;;;2.89;99.77
23261;BME280;11799;47.740;-3.390;2023-01-19T07:31:13;100780.91;;;2.92;99.52
23261;BME280;11799;47.740;-3.390;2023-01-19T07:33:38;100783.44;;;2.93;99.21
23261;BME280;11799;47.740;-3.390;2023-01-19T07:36:04;100781.53;;;2.97;99.21
23261;BME280;11799;47.740;-3.390;2023-01-19T07:38:30;100772.88;;;2.96;99.41
23261;BME280;11799;47.740;-3.390;2023-01-19T07:41:06;100770.19;;;2.98;99.22
23261;BME280;11799;47.740;-3.390;2023-01-19T07:43:32;100760.75;;;2.95;98.71
23261;BME280;11799;47.740;-3.390;2023-01-19T07:45:59;100770.75;;;3.05;98.91
23261;BME280;11799;47.740;-3.390;2023-01-19T07:48:26;100770.59;;;3.08;99.04
23261;BME280;11799;47.740;-3.390;2023-01-19T07:50:52;100765.31;;;3.09;99.02
23261;BME280;11799;47.740;-3.390;2023-01-19T07:53:18;100760.03;;;3.11;98.89
23261;BME280;11799;47.740;-3.390;2023-01-19T07:55:43;100758.19;;;3.13;99.37
23261;BME280;11799;47.740;-3.390;2023-01-19T07:58:09;100755.56;;;3.13;98.92
23261;BME280;11799;47.740;-3.390;2023-01-19T08:00:36;100740.75;;;3.13;98.99
23261;BME280;11799;47.740;-3.390;2023-01-19T08:03:03;100729.25;;;3.17;99.05
23261;BME280;11799;47.740;-3.390;2023-01-19T08:05:29;100728.25;;;3.20;99.22
23261;BME280;11799;47.740;-3.390;2023-01-19T08:07:56;100717.59;;;3.24;98.86
23261;BME280;11799;47.740;-3.390;2023-01-19T08:10:26;100727.97;;;3.26;99.34
23261;BME280;11799;47.740;-3.390;2023-01-19T08:12:56;100712.31;;;3.26;99.50
23261;BME280;11799;47.740;-3.390;2023-01-19T08:15:22;100715.84;;;3.25;99.58
23261;BME280;11799;47.740;-3.390;2023-01-19T08:17:55;100719.16;;;3.28;99.75
23261;BME280;11799;47.740;-3.390;2023-01-19T08:20:21;100718.16;;;3.31;99.42
23261;BME280;11799;47.740;-3.390;2023-01-19T08:22:48;100720.75;;;3.31;99.61
23261;BME280;11799;47.740;-3.390;2023-01-19T08:25:13;100714.63;;;3.32;100.00
23261;BME280;11799;47.740;-3.390;2023-01-19T08:27:39;100708.41;;;3.35;99.87
23261;BME280;11799;47.740;-3.390;2023-01-19T08:30:05;100709.31;;;3.34;99.08
23261;BME280;11799;47.740;-3.390;2023-01-19T08:32:31;100717.09;;;3.35;99.53
23261;BME280;11799;47.740;-3.390;2023-01-19T08:34:56;100712.69;;;3.36;100.00
23261;BME280;11799;47.740;-3.390;2023-01-19T08:37:22;100693.50;;;3.37;99.86
23261;BME280;11799;47.740;-3.390;2023-01-19T08:39:49;100682.22;;;3.36;99.55
23261;BME280;11799;47.740;-3.390;2023-01-19T08:42:15;100686.59;;;3.36;100.00
23261;BME280;11799;47.740;-3.390;2023-01-19T08:44:40;100680.38;;;3.38;99.57
23261;BME280;11799;47.740;-3.390;2023-01-19T08:47:06;100676.84;;;3.39;99.92
23261;BME280;11799;47.740;-3.390;2023-01-19T08:49:32;100682.84;;;3.41;99.73
23261;BME280;11799;47.740;-3.390;2023-01-19T08:51:58;100677.47;;;3.44;99.89
23261;BME280;11799;47.740;-3.390;2023-01-19T08:54:23;100668.59;;;3.47;100.00
23261;BME280;11799;47.740;-3.390;2023-01-19T08:56:49;100664.22;;;3.47;100.00
23261;BME280;11799;47.740;-3.390;2023-01-19T08:59:15;100656.31;;;3.49;99.92
23261;BME280;11799;47.740;-3.390;2023-01-19T09:01:41;100641.41;;;3.51;100.00
23261;BME280;11799;47.740;-3.390;2023-01-19T09:04:07;100652.72;;;3.51;100.00
23261;BME280;11799;47.740;-3.390;2023-01-19T09:06:32;100649.09;;;3.54;100.00
23261;BME280;11799;47.740;-3.390;2023-01-19T09:08:58;100642.94;;;3.55;100.00
23261;BME280;11799;47.740;-3.390;2023-01-19T09:11:24;100635.28;;;3.52;100.00
23261;BME280;11799;47.740;-3.390;2023-01-19T09:13:50;100655.09;;;3.56;100.00
23261;BME280;11799;47.740;-3.390;2023-01-19T09:16:15;100643.03;;;3.53;100.00
23261;BME280;11799;47.740;-3.390;2023-01-19T09:18:41;100658.53;;;3.56;100.00
23261;BME280;11799;47.740;-3.390;2023-01-19T09:21:08;100640.09;;;3.59;100.00
23261;BME280;11799;47.740;-3.390;2023-01-19T09:23:34;100636.66;;;3.59;100.00
23261;BME280;11799;47.740;-3.390;2023-01-19T09:26:02;100636.66;;;3.59;100.00
23261;BME280;11799;47.740;-3.390;2023-01-19T09:28:28;100626.03;;;3.62;100.00
23261;BME280;11799;47.740;-3.390;2023-01-19T09:30:54;100625.13;;;3.63;100.00
23261;BME280;11799;47.740;-3.390;2023-01-19T09:33:19;100611.06;;;3.65;100.00
23261;BME280;11799;47.740;-3.390;2023-01-19T09:35:46;100605.00;;;3.65;100.00
23261;BME280;11799;47.740;-3.390;2023-01-19T09:38:13;100594.47;;;3.67;100.00
23261;BME280;11799;47.740;-3.390;2023-01-19T09:40:46;100603.16;;;3.67;100.00
23261;BME280;11799;47.740;-3.390;2023-01-19T09:43:18;100594.38;;;3.68;100.00
23261;BME280;11799;47.740;-3.390;2023-01-19T09:46:11;100592.63;;;3.69;100.00
23261;BME280;11799;47.740;-3.390;2023-01-19T09:48:50;100591.69;;;3.70;100.00
23261;BME280;11799;47.740;-3.390;2023-01-19T09:56:32;100589.84;;;3.72;100.00
23261;BME280;11799;47.740;-3.390;2023-01-19T09:58:59;100589.78;;;3.73;100.00
23261;BME280;11799;47.740;-3.390;2023-01-19T10:01:32;100588.84;;;3.74;100.00
23261;BME280;11799;47.740;-3.390;2023-01-19T10:06:38;100606.38;;;3.72;100.00
23261;BME280;11799;47.740;-3.390;2023-01-19T10:09:31;100608.91;;;3.74;100.00
23261;BME280;11799;47.740;-3.390;2023-01-19T10:15:14;100605.44;;;3.73;100.00
23261;BME280;11799;47.740;-3.390;2023-01-19T10:18:08;100593.22;;;3.74;100.00
23261;BME280;11799;47.740;-3.390;2023-01-19T10:20:39;100584.31;;;3.78;100.00
23261;BME280;11799;47.740;-3.390;2023-01-19T10:25:46;100549.59;;;3.76;99.93
23261;BME280;11799;47.740;-3.390;2023-01-19T10:28:12;100548.91;;;3.72;100.00
23261;BME280;11799;47.740;-3.390;2023-01-19T10:30:39;100559.34;;;3.72;100.00
23261;BME280;11799;47.740;-3.390;2023-01-19T10:33:12;100562.81;;;3.73;99.96
23261;BME280;11799;47.740;-3.390;2023-01-19T10:35:37;100558.44;;;3.73;100.00
23261;BME280;11799;47.740;-3.390;2023-01-19T10:38:04;100558.59;;;3.70;100.00
23261;BME280;11799;47.740;-3.390;2023-01-19T10:43:57;100561.53;;;3.64;99.75
23261;BME280;11799;47.740;-3.390;2023-01-19T10:48:50;100560.09;;;3.58;99.16
23261;BME280;11799;47.740;-3.390;2023-01-19T10:51:16;100549.88;;;3.54;99.50
23261;BME280;11799;47.740;-3.390;2023-01-19T10:54:01;100531.75;;;3.51;99.41
23261;BME280;11799;47.740;-3.390;2023-01-19T10:56:33;100518.03;;;3.47;99.24
23261;BME280;11799;47.740;-3.390;2023-01-19T10:59:01;100515.41;;;3.47;99.25
23261;BME280;11799;47.740;-3.390;2023-01-19T11:01:28;100514.84;;;3.42;99.27
23261;BME280;11799;47.740;-3.390;2023-01-19T11:03:56;100506.19;;;3.42;99.67
23261;BME280;11799;47.740;-3.390;2023-01-19T11:06:31;100506.00;;;3.45;99.38
23261;BME280;11799;47.740;-3.390;2023-01-19T11:09:19;100485.22;;;3.43;99.65
23261;BME280;11799;47.740;-3.390;2023-01-19T11:11:48;100488.66;;;3.44;99.85
23261;BME280;11799;47.740;-3.390;2023-01-19T11:14:20;100486.06;;;3.44;99.73
23261;BME280;11799;47.740;-3.390;2023-01-19T11:16:56;100477.53;;;3.40;100.00
23261;BME280;11799;47.740;-3.390;2023-01-19T11:19:30;100487.38;;;3.35;99.52
23261;BME280;11799;47.740;-3.390;2023-01-19T11:22:16;100487.22;;;3.38;99.76
23261;BME280;11799;47.740;-3.390;2023-01-19T11:24:46;100496.75;;;3.39;100.00
23261;BME280;11799;47.740;-3.390;2023-01-19T11:27:16;100493.28;;;3.39;99.92
23261;BME280;11799;47.740;-3.390;2023-01-19T11:29:47;100480.25;;;3.39;100.00
23261;BME280;11799;47.740;-3.390;2023-01-19T11:32:25;100499.34;;;3.39;99.96
23261;BME280;11799;47.740;-3.390;2023-01-19T11:34:51;100505.50;;;3.38;99.97
23261;BME280;11799;47.740;-3.390;2023-01-19T11:39:51;100495.81;;;3.40;100.00
23261;BME280;11799;47.740;-3.390;2023-01-19T11:42:18;100488.75;;;3.42;100.00
23261;BME280;11799;47.740;-3.390;2023-01-19T11:44:50;100477.38;;;3.43;100.00
23261;BME280;11799;47.740;-3.390;2023-01-19T11:47:41;100460.97;;;3.41;100.00
23261;BME280;11799;47.740;-3.390;2023-01-19T11:50:42;100451.28;;;3.43;100.00
23261;BME280;11799;47.740;-3.390;2023-01-19T11:53:27;100456.34;;;3.46;100.00
23261;BME280;11799;47.740;-3.390;2023-01-19T11:55:57;100442.31;;;3.47;100.00
23261;BME280;11799;47.740;-3.390;2023-01-19T11:58:27;100443.38;;;3.45;100.00
23261;BME280;11799;47.740;-3.390;2023-01-19T12:01:01;100456.22;;;3.48;100.00
23261;BME280;11799;47.740;-3.390;2023-01-19T12:03:43;100461.56;;;3.46;100.00
23261;BME280;11799;47.740;-3.390;2023-01-19T12:06:14;100444.09;;;3.47;100.00
23261;BME280;11799;47.740;-3.390;2023-01-19T12:08:57;100435.53;;;3.45;100.00
23261;BME280;11799;47.740;-3.390;2023-01-19T12:11:32;100428.25;;;3.50;100.00
23261;BME280;11799;47.740;-3.390;2023-01-19T12:13:59;100425.56;;;3.51;100.00
23261;BME280;11799;47.740;-3.390;2023-01-19T12:16:28;100421.94;;;3.54;100.00
23261;BME280;11799;47.740;-3.390;2023-01-19T12:19:03;100414.19;;;3.52;100.00
23261;BME280;11799;47.740;-3.390;2023-01-19T12:21:30;100422.78;;;3.54;100.00
23261;BME280;11799;47.740;-3.390;2023-01-19T12:24:09;100421.34;;;3.49;100.00
23261;BME280;11799;47.740;-3.390;2023-01-19T12:29:14;100411.75;;;3.49;100.00
23261;BME280;11799;47.740;-3.390;2023-01-19T12:31:41;100406.72;;;3.46;99.94
23261;BME280;11799;47.740;-3.390;2023-01-19T12:36:49;100393.41;;;3.35;99.68
23261;BME280;11799;47.740;-3.390;2023-01-19T12:39:16;100390.13;;;3.31;98.98
23261;BME280;11799;47.740;-3.390;2023-01-19T12:41:43;100389.13;;;3.34;99.26
23261;BME280;11799;47.740;-3.390;2023-01-19T12:46:38;100387.53;;;3.31;99.22
23261;BME280;11799;47.740;-3.390;2023-01-19T12:51:34;100412.28;;;3.24;98.80
23261;BME280;11799;47.740;-3.390;2023-01-19T12:54:00;100398.28;;;3.25;98.65
23261;BME280;11799;47.740;-3.390;2023-01-19T12:56:31;100386.34;;;3.21;98.83
23261;BME280;11799;47.740;-3.390;2023-01-19T12:58:57;100387.94;;;3.24;98.90
23261;BME280;11799;47.740;-3.390;2023-01-19T13:01:23;100387.25;;;3.20;98.71
23261;BME280;11799;47.740;-3.390;2023-01-19T13:03:58;100387.44;;;3.17;98.83
23261;BME280;11799;47.740;-3.390;2023-01-19T13:12:24;100383.47;;;3.10;98.37
23261;BME280;11799;47.740;-3.390;2023-01-19T13:14:50;100376.66;;;3.08;98.30
23261;BME280;11799;47.740;-3.390;2023-01-19T13:17:46;100370.66;;;3.06;98.44
23261;BME280;11799;47.740;-3.390;2023-01-19T13:20:22;100364.59;;;3.05;99.03
23261;BME280;11799;47.740;-3.390;2023-01-19T13:22:50;100364.09;;;2.98;98.64
23261;BME280;11799;47.740;-3.390;2023-01-19T13:25:35;100368.31;;;3.01;98.84
23261;BME280;11799;47.740;-3.390;2023-01-19T13:28:03;100358.72;;;3.02;98.37
23261;BME280;11799;47.740;-3.390;2023-01-19T13:30:33;100365.69;;;3.01;98.85
23261;BME280;11799;47.740;-3.390;2023-01-19T13:33:17;100360.72;;;2.96;98.68
23261;BME280;11799;47.740;-3.390;2023-01-19T13:35:53;100352.91;;;2.96;98.71
23261;BME280;11799;47.740;-3.390;2023-01-19T13:38:21;100364.78;;;3.02;98.36
23261;BME280;11799;47.740;-3.390;2023-01-19T13:40:47;100373.00;;;2.94;98.38
23261;BME280;11799;47.740;-3.390;2023-01-19T13:43:20;100374.34;;;3.02;98.34
23261;BME280;11799;47.740;-3.390;2023-01-19T13:45:49;100356.34;;;2.97;98.34